Rayong, Thailand

11:55 AM ICT on Maj 24, 2015 (GMT +0700)
Nhong Yai In | | Change Station
CLOSE
Current Station
Personal Weather Stations
Location: Phe, Rayong
Elevation: 26 ft
Nearby Weather Stations

Elev 26 ft 12.62 °N, 101.40 °E | Updated 2 seconds ago

Mostly Cloudy
Mestadels molnigt
87.7 °F
Feels Like 104 °F
N
8.0
Vind Växlande Vind from SV
Gusts 13.0 miles/tim

Idag
High -- | Low -- °F
--% Chance of Precip.
Yesterday
High -- | Low -- °F
Precip. -- tum
5:48 AM 6:34 PM
Första kvarteret, 36% visible
Lufttryck 29.80 tum
Sikt 6.2 miles
Molnigt Few 2000 ft
Mestadels molnigt 30000 ft
Värmeindex 104 °F
Daggpunkt 80 °F
Luftfuktighet 78%
Rainfall 0.00 tum
Snow Depth Not available.
UV 9 out of 12
Pollen Not available.
Air Quality Not available.
Flu Activity Not available.
METAR VTBU 240430Z 23010KT 9999 FEW020CB BKN300 32/23 Q1009 A2982 CB NE

More Conditions Fewer Conditions

Lufttryck 29.80 tum
Sikt 6.2 miles
Molnigt Few 2000 ft
Mestadels molnigt 30000 ft
Värmeindex 104 °F
Daggpunkt 80 °F
Luftfuktighet 78%
Rainfall 0.00 tum
Snow Depth Not available.
UV 9 out of 12
Pollen Not available.
Air Quality Not available.
Flu Activity Not available.
METAR VTBU 240430Z 23010KT 9999 FEW020CB BKN300 32/23 Q1009 A2982 CB NE

More Conditions Fewer Conditions

10-Day Weather Forecast

Almanac

Astronomi

May. 24, 2015 Rise Set
Actual Time
Civil Twilight
Nautical Twilight
Astronomical Twilight
Månen
Length Of Visible Light
Dagens längd
Tomorrow will be .
, % of the Moon is Illuminated

Today's Extremes

Country Highs Country Lows

Community

WunderPhotos

Upload Photos

1,823,688 photos uploaded!

WunderBlogs® & News

Nearby

Air Quality

  Air Quality AQ Index Pollutant
Not available.

Snödjup

Station Depth Elevation

Earthquake Activity

Stad Distance Mag. Time & Date
Minimum magnitude displayed is 2.5.

Coastal Water Temperatures

Plats Temperatur

Stations

Nearby Weather Stations

Station Location Temp Vindavkylning Daggpunkt Luftfuktighet Vind Precip. Elev Uppdaterad Type